createdAt,value
2023-02-06T00:00:36.472Z,3.10
2023-02-06T00:03:04.444Z,3.15
2023-02-06T00:05:31.499Z,3.09
2023-02-06T00:07:58.151Z,3.07
2023-02-06T00:10:25.467Z,3.07
2023-02-06T00:12:52.853Z,3.01
2023-02-06T00:15:20.256Z,3.00
2023-02-06T00:17:46.873Z,2.92
2023-02-06T00:20:14.237Z,2.92
2023-02-06T00:22:41.337Z,2.86
2023-02-06T00:25:08.077Z,2.82
2023-02-06T00:27:35.346Z,2.82
2023-02-06T00:30:02.712Z,2.76
2023-02-06T00:32:29.579Z,2.68
2023-02-06T00:34:56.184Z,2.62
2023-02-06T00:37:22.979Z,2.59
2023-02-06T00:39:49.908Z,2.57
2023-02-06T00:42:17.100Z,2.62
2023-02-06T00:44:43.913Z,2.58
2023-02-06T00:47:10.496Z,2.54
2023-02-06T00:49:37.292Z,2.52
2023-02-06T00:52:04.012Z,2.45
2023-02-06T00:54:30.945Z,2.44
2023-02-06T00:56:57.756Z,2.39
2023-02-06T00:59:25.007Z,2.35
2023-02-06T01:01:52.048Z,2.34
2023-02-06T01:04:19.533Z,2.32
2023-02-06T01:06:46.173Z,2.32
2023-02-06T01:09:13.109Z,2.27
2023-02-06T01:11:40.132Z,2.28
2023-02-06T01:14:07.277Z,2.31
2023-02-06T01:16:33.816Z,2.31
2023-02-06T01:19:00.791Z,2.26
2023-02-06T01:21:27.610Z,2.27
2023-02-06T01:23:55.528Z,2.25
2023-02-06T01:26:24.151Z,2.23
2023-02-06T01:28:50.712Z,2.14
2023-02-06T01:31:17.761Z,2.09
2023-02-06T01:33:45.137Z,2.06
2023-02-06T01:36:12.425Z,2.02
2023-02-06T01:38:39.938Z,2.01
2023-02-06T01:41:07.336Z,1.98
2023-02-06T01:43:35.830Z,1.96
2023-02-06T01:46:02.792Z,1.96
2023-02-06T01:48:37.884Z,1.93
2023-02-06T01:51:05.895Z,1.92
2023-02-06T01:53:33.609Z,1.84
2023-02-06T01:56:03.079Z,1.79
2023-02-06T01:58:33.782Z,1.83
2023-02-06T02:01:01.600Z,1.77
2023-02-06T02:03:30.111Z,1.79
2023-02-06T02:06:00.171Z,1.80
2023-02-06T02:08:36.154Z,1.83
2023-02-06T02:11:04.516Z,1.78
2023-02-06T02:13:34.234Z,1.76
2023-02-06T02:16:25.309Z,1.84
2023-02-06T02:18:54.832Z,1.76
2023-02-06T02:21:40.758Z,1.76
2023-02-06T02:24:27.305Z,1.74
2023-02-06T02:27:17.388Z,1.72
2023-02-06T02:29:54.301Z,1.65
2023-02-06T02:32:40.775Z,1.64
2023-02-06T02:35:10.803Z,1.59
2023-02-06T02:37:45.823Z,1.54
2023-02-06T02:40:24.859Z,1.56
2023-02-06T02:42:52.102Z,1.56
2023-02-06T02:45:22.800Z,1.56
2023-02-06T02:47:56.277Z,1.58
2023-02-06T02:50:23.155Z,1.56
2023-02-06T02:52:50.866Z,1.59
2023-02-06T02:55:20.781Z,1.55
2023-02-06T02:57:51.411Z,1.56
2023-02-06T03:00:19.136Z,1.53
2023-02-06T03:02:47.826Z,1.49
2023-02-06T03:05:16.819Z,1.45
2023-02-06T03:07:53.661Z,1.48
2023-02-06T03:10:23.528Z,1.49
2023-02-06T03:13:06.809Z,1.48
2023-02-06T03:15:53.380Z,1.46
2023-02-06T03:18:47.366Z,1.48
2023-02-06T03:21:16.950Z,1.45
2023-02-06T03:23:45.372Z,1.42
2023-02-06T03:26:16.419Z,1.34
2023-02-06T03:28:45.699Z,1.36
2023-02-06T03:31:15.298Z,1.41
2023-02-06T03:33:46.407Z,1.32
2023-02-06T03:36:17.155Z,1.30
2023-02-06T03:38:45.972Z,1.30
2023-02-06T03:41:13.250Z,1.23
2023-02-06T03:43:42.711Z,1.24
2023-02-06T03:46:12.592Z,1.22
2023-02-06T03:48:43.793Z,1.18
2023-02-06T03:51:17.829Z,1.12
2023-02-06T03:53:46.558Z,1.15
2023-02-06T03:56:19.401Z,1.15
2023-02-06T03:58:47.414Z,1.16
2023-02-06T04:01:14.808Z,1.13
2023-02-06T04:03:41.532Z,1.11
2023-02-06T04:06:08.312Z,1.14
2023-02-06T04:08:35.117Z,1.11
2023-02-06T04:11:02.210Z,1.08
2023-02-06T04:13:30.213Z,1.04
2023-02-06T04:15:58.070Z,1.06
2023-02-06T04:18:25.517Z,1.04
2023-02-06T04:20:52.980Z,1.02
2023-02-06T04:23:20.388Z,1.01
2023-02-06T04:25:48.038Z,1.03
2023-02-06T04:28:15.167Z,1.08
2023-02-06T04:30:42.152Z,1.09
2023-02-06T04:33:08.876Z,1.14
2023-02-06T04:35:35.899Z,1.14
2023-02-06T04:38:02.772Z,1.14
2023-02-06T04:40:29.547Z,1.19
2023-02-06T04:42:57.043Z,1.20
2023-02-06T04:45:24.237Z,1.22
2023-02-06T04:47:51.613Z,1.19
2023-02-06T04:50:19.234Z,1.20
2023-02-06T04:52:46.135Z,1.20
2023-02-06T04:55:13.480Z,1.19
2023-02-06T04:57:40.152Z,1.21
2023-02-06T05:00:07.173Z,1.18
2023-02-06T05:02:39.560Z,1.25
2023-02-06T05:05:07.598Z,1.28
2023-02-06T05:07:34.912Z,1.28
2023-02-06T05:10:02.121Z,1.32
2023-02-06T05:12:29.705Z,1.37
2023-02-06T05:14:57.127Z,1.36
2023-02-06T05:17:24.438Z,1.45
2023-02-06T05:19:51.929Z,1.45
2023-02-06T05:22:18.546Z,1.46
2023-02-06T05:24:46.032Z,1.48
2023-02-06T05:27:13.372Z,1.43
2023-02-06T05:29:39.874Z,1.49
2023-02-06T05:32:06.609Z,1.51
2023-02-06T05:34:33.933Z,1.48
2023-02-06T05:37:00.579Z,1.49
2023-02-06T05:39:27.465Z,1.51
2023-02-06T05:41:55.022Z,1.52
2023-02-06T05:44:22.026Z,1.58
2023-02-06T05:46:49.883Z,1.54
2023-02-06T05:49:17.236Z,1.62
2023-02-06T05:51:44.461Z,1.64
2023-02-06T05:54:11.366Z,1.64
2023-02-06T05:56:38.098Z,1.71
2023-02-06T05:59:04.881Z,1.74
2023-02-06T06:01:32.186Z,1.74
2023-02-06T06:04:00.172Z,1.78
2023-02-06T06:06:27.063Z,1.79
2023-02-06T06:08:54.396Z,1.79
2023-02-06T06:11:20.958Z,1.82
2023-02-06T06:13:47.632Z,1.70
2023-02-06T06:16:14.293Z,1.79
2023-02-06T06:18:41.320Z,1.79
2023-02-06T06:21:08.850Z,1.82
2023-02-06T06:23:36.092Z,1.80
2023-02-06T06:26:03.135Z,1.82
2023-02-06T06:28:30.035Z,1.84
2023-02-06T06:31:01.420Z,1.82
2023-02-06T06:33:28.698Z,1.85
2023-02-06T06:35:55.923Z,1.80
2023-02-06T06:38:23.279Z,1.84
2023-02-06T06:40:50.036Z,1.81
2023-02-06T06:43:16.701Z,1.82
2023-02-06T06:45:43.696Z,1.84
2023-02-06T06:48:10.739Z,1.89
2023-02-06T06:50:37.417Z,1.87
2023-02-06T06:53:04.295Z,1.89
2023-02-06T06:55:30.818Z,1.75
2023-02-06T06:57:57.734Z,1.59
2023-02-06T07:00:25.078Z,1.67
2023-02-06T07:02:52.480Z,1.65
2023-02-06T07:05:20.141Z,1.69
2023-02-06T07:07:46.890Z,1.74
2023-02-06T07:10:14.185Z,1.80
2023-02-06T07:12:41.721Z,1.70
2023-02-06T07:15:08.729Z,1.77
2023-02-06T07:17:36.638Z,1.83
2023-02-06T07:20:03.874Z,1.84
2023-02-06T07:22:30.514Z,1.92
2023-02-06T07:24:58.072Z,1.98
2023-02-06T07:27:25.001Z,2.04
2023-02-06T07:29:51.763Z,2.13
2023-02-06T07:32:18.584Z,2.14
2023-02-06T07:34:45.068Z,2.20
2023-02-06T07:37:11.977Z,2.18
2023-02-06T07:39:38.991Z,2.22
2023-02-06T07:42:05.887Z,2.24
2023-02-06T07:44:32.611Z,2.29
2023-02-06T07:47:00.001Z,2.32
2023-02-06T07:49:26.858Z,2.36
2023-02-06T07:51:53.958Z,2.37
2023-02-06T07:54:20.929Z,2.35
2023-02-06T07:56:47.765Z,2.39
2023-02-06T07:59:14.875Z,2.41
2023-02-06T08:01:41.545Z,2.45
2023-02-06T08:04:08.692Z,2.46
2023-02-06T08:06:35.805Z,2.42
2023-02-06T08:09:02.948Z,2.47
2023-02-06T08:11:31.009Z,2.45
2023-02-06T08:13:57.793Z,2.43
2023-02-06T08:16:24.982Z,2.49
2023-02-06T08:18:52.321Z,2.55
2023-02-06T08:21:21.514Z,2.61
2023-02-06T08:23:53.280Z,2.65
2023-02-06T08:26:19.834Z,2.71
2023-02-06T08:28:48.148Z,2.73
2023-02-06T08:31:17.491Z,2.76
2023-02-06T08:33:45.437Z,2.78
2023-02-06T08:36:12.780Z,2.77
2023-02-06T08:38:39.762Z,2.83
2023-02-06T08:41:14.094Z,2.81
2023-02-06T08:43:40.819Z,2.84
2023-02-06T08:46:07.590Z,2.90
2023-02-06T08:48:35.022Z,2.97
2023-02-06T08:51:03.214Z,2.97
2023-02-06T08:53:29.936Z,2.99
2023-02-06T08:56:00.370Z,2.95
2023-02-06T08:58:27.510Z,3.07
2023-02-06T09:00:54.637Z,3.07
2023-02-06T09:03:22.741Z,3.07
2023-02-06T09:05:50.303Z,3.17
2023-02-06T09:08:17.737Z,3.22
2023-02-06T09:10:44.373Z,3.33
2023-02-06T09:13:11.751Z,3.37
2023-02-06T09:15:38.613Z,3.39
2023-02-06T09:18:05.629Z,3.43
2023-02-06T09:20:32.291Z,3.45
2023-02-06T09:22:58.827Z,3.47
2023-02-06T09:25:26.209Z,3.48
2023-02-06T09:27:52.967Z,3.54
2023-02-06T09:30:20.355Z,3.60
2023-02-06T09:32:47.017Z,3.61
2023-02-06T09:35:13.890Z,3.71
2023-02-06T09:37:40.706Z,3.72
2023-02-06T09:40:08.365Z,3.78
2023-02-06T09:42:37.899Z,3.82
2023-02-06T09:45:19.923Z,3.90
2023-02-06T09:47:52.403Z,3.98
2023-02-06T09:50:23.997Z,3.97
2023-02-06T09:53:05.832Z,3.96
2023-02-06T09:55:40.018Z,3.91
2023-02-06T09:58:13.455Z,3.98
2023-02-06T10:00:41.465Z,4.06
2023-02-06T10:03:30.627Z,4.11
2023-02-06T10:06:08.930Z,4.18
2023-02-06T10:08:46.118Z,4.18
2023-02-06T10:11:16.395Z,4.20
2023-02-06T10:13:49.835Z,4.21
2023-02-06T10:16:20.159Z,4.23
2023-02-06T10:18:51.749Z,4.27
2023-02-06T10:21:27.548Z,4.32
2023-02-06T10:23:58.118Z,4.39
2023-02-06T10:26:25.210Z,4.39
2023-02-06T10:28:54.091Z,4.46
2023-02-06T10:31:21.155Z,4.54
2023-02-06T10:34:01.322Z,4.60
2023-02-06T10:36:46.059Z,4.58
2023-02-06T10:39:31.539Z,4.51
2023-02-06T10:42:15.321Z,4.67
2023-02-06T10:44:51.240Z,4.79
2023-02-06T10:47:23.312Z,4.94
2023-02-06T10:49:53.429Z,5.10
2023-02-06T10:52:23.345Z,5.13
2023-02-06T10:54:52.035Z,5.34
2023-02-06T10:57:24.906Z,5.42
2023-02-06T10:59:53.970Z,5.56
2023-02-06T11:02:25.617Z,5.56
2023-02-06T11:05:24.951Z,5.58
2023-02-06T11:07:56.142Z,5.58
2023-02-06T11:10:24.457Z,5.68
2023-02-06T11:13:01.603Z,5.75
2023-02-06T11:15:34.603Z,6.00
2023-02-06T11:18:03.266Z,5.92
2023-02-06T11:20:32.579Z,5.38
2023-02-06T11:23:20.126Z,5.11
2023-02-06T11:25:50.524Z,5.20
2023-02-06T11:28:19.112Z,5.30
2023-02-06T11:30:57.993Z,5.35
2023-02-06T11:33:33.877Z,5.43
2023-02-06T11:36:01.309Z,5.41
2023-02-06T11:38:29.510Z,5.48
2023-02-06T11:40:56.498Z,5.75
2023-02-06T11:43:24.734Z,5.80
2023-02-06T11:46:04.650Z,5.88
2023-02-06T11:48:36.892Z,6.03
2023-02-06T11:51:04.836Z,5.97
2023-02-06T11:53:31.730Z,5.75
2023-02-06T11:56:01.090Z,5.60
2023-02-06T11:58:28.435Z,5.93
2023-02-06T12:01:04.295Z,5.94
2023-02-06T12:03:36.906Z,6.06
2023-02-06T12:06:42.147Z,6.16
2023-02-06T12:09:12.806Z,5.92
2023-02-06T12:12:12.400Z,6.05
2023-02-06T12:14:42.312Z,6.05
2023-02-06T12:17:22.267Z,5.88
2023-02-06T12:19:51.491Z,5.87
2023-02-06T12:22:21.105Z,5.93
2023-02-06T12:24:49.966Z,5.91
2023-02-06T12:27:33.031Z,5.93
2023-02-06T12:30:03.447Z,6.04
2023-02-06T12:32:37.824Z,6.05
2023-02-06T12:35:21.901Z,6.05
2023-02-06T12:37:53.546Z,6.07
2023-02-06T12:40:20.071Z,6.01
2023-02-06T12:42:59.133Z,6.05
2023-02-06T12:45:32.365Z,6.09
2023-02-06T12:48:02.377Z,6.12
2023-02-06T12:50:32.630Z,6.13
2023-02-06T12:53:04.696Z,6.14
2023-02-06T12:55:37.464Z,6.25
2023-02-06T12:58:05.586Z,6.22
2023-02-06T13:00:42.440Z,6.21
2023-02-06T13:03:21.995Z,6.24
2023-02-06T13:06:00.154Z,6.31
2023-02-06T13:08:36.287Z,6.28
2023-02-06T13:11:05.831Z,6.22
2023-02-06T13:13:35.111Z,6.16
2023-02-06T13:16:02.960Z,6.35
2023-02-06T13:18:41.971Z,6.16
2023-02-06T13:21:15.152Z,6.38
2023-02-06T13:23:49.449Z,6.58
2023-02-06T13:26:16.794Z,6.74
2023-02-06T13:28:46.034Z,6.75
2023-02-06T13:31:24.421Z,6.84
2023-02-06T13:33:53.579Z,7.10
2023-02-06T13:36:25.763Z,7.04
2023-02-06T13:38:57.042Z,7.03
2023-02-06T13:41:30.831Z,6.87
2023-02-06T13:43:57.579Z,6.88
2023-02-06T13:46:33.387Z,6.84
2023-02-06T13:49:06.182Z,6.81
2023-02-06T13:51:44.141Z,6.90
2023-02-06T13:54:31.611Z,7.01
2023-02-06T13:57:17.254Z,7.04
2023-02-06T13:59:47.449Z,7.08
2023-02-06T14:02:23.830Z,6.98
2023-02-06T14:04:51.357Z,7.02
2023-02-06T14:07:53.318Z,7.01
2023-02-06T14:10:36.669Z,7.08
2023-02-06T14:13:12.831Z,7.07
2023-02-06T14:15:58.728Z,7.00
2023-02-06T14:18:36.201Z,6.86
2023-02-06T14:21:12.864Z,6.97
2023-02-06T14:24:06.090Z,6.99
2023-02-06T14:26:57.274Z,7.06
2023-02-06T14:29:27.003Z,6.95
2023-02-06T14:32:06.194Z,7.09
2023-02-06T14:34:42.372Z,7.09
2023-02-06T14:37:35.501Z,7.09
2023-02-06T14:40:05.582Z,7.31
2023-02-06T14:42:40.386Z,7.43
2023-02-06T14:45:16.519Z,7.49
2023-02-06T14:47:44.133Z,7.46
2023-02-06T14:50:30.453Z,7.33
2023-02-06T14:53:00.048Z,7.19
2023-02-06T14:55:38.184Z,7.12
2023-02-06T14:58:06.514Z,7.03
2023-02-06T15:00:33.605Z,7.03
2023-02-06T15:03:05.352Z,6.99
2023-02-06T15:05:33.283Z,6.98
2023-02-06T15:08:02.432Z,6.98
2023-02-06T15:10:31.326Z,7.02
2023-02-06T15:12:58.046Z,7.01
2023-02-06T15:15:26.889Z,6.96
2023-02-06T15:17:56.310Z,6.81
2023-02-06T15:20:28.676Z,6.86
2023-02-06T15:23:08.002Z,6.81
2023-02-06T15:25:58.988Z,6.81
2023-02-06T15:28:28.208Z,6.82
2023-02-06T15:30:56.572Z,6.75
2023-02-06T15:33:33.165Z,6.75
2023-02-06T15:36:01.507Z,6.69
2023-02-06T15:38:29.294Z,6.63
2023-02-06T15:40:59.034Z,6.59
2023-02-06T15:43:27.007Z,6.53
2023-02-06T15:45:56.145Z,6.56
2023-02-06T15:48:25.339Z,6.52
2023-02-06T15:50:55.585Z,6.51
2023-02-06T15:53:35.932Z,6.53
2023-02-06T15:56:05.306Z,6.45
2023-02-06T15:58:33.056Z,6.51
2023-02-06T16:01:01.267Z,6.46
2023-02-06T16:03:29.456Z,6.50
2023-02-06T16:05:57.742Z,6.54
2023-02-06T16:08:47.862Z,6.54
2023-02-06T16:11:34.288Z,6.52
2023-02-06T16:14:02.116Z,6.54
2023-02-06T16:16:29.174Z,6.53
2023-02-06T16:18:58.510Z,6.49
2023-02-06T16:21:31.206Z,6.49
2023-02-06T16:24:03.082Z,6.45
2023-02-06T16:26:49.100Z,6.41
2023-02-06T16:29:24.126Z,6.36
2023-02-06T16:32:12.565Z,6.30
2023-02-06T16:34:41.303Z,6.19
2023-02-06T16:37:19.844Z,6.17
2023-02-06T16:39:46.915Z,6.15
2023-02-06T16:42:21.595Z,6.10
2023-02-06T16:44:51.116Z,6.05
2023-02-06T16:47:19.800Z,6.03
2023-02-06T16:49:49.625Z,5.98
2023-02-06T16:52:19.304Z,5.91
2023-02-06T16:54:46.601Z,5.79
2023-02-06T16:57:19.272Z,5.75
2023-02-06T16:59:46.639Z,5.70
2023-02-06T17:02:14.122Z,5.62
2023-02-06T17:04:41.370Z,5.52
2023-02-06T17:07:13.073Z,5.46
2023-02-06T17:09:40.124Z,5.39
2023-02-06T17:12:11.766Z,5.35
2023-02-06T17:14:38.427Z,5.27
2023-02-06T17:17:05.334Z,5.25
2023-02-06T17:19:32.096Z,5.22
2023-02-06T17:21:58.783Z,5.19
2023-02-06T17:24:25.535Z,5.16
2023-02-06T17:26:52.262Z,5.14
2023-02-06T17:29:20.294Z,5.14
2023-02-06T17:31:48.083Z,5.15
2023-02-06T17:34:15.291Z,5.14
2023-02-06T17:36:43.155Z,5.13
2023-02-06T17:39:11.945Z,5.10
2023-02-06T17:41:39.586Z,5.10
2023-02-06T17:44:06.859Z,5.13
2023-02-06T17:46:33.540Z,5.07
2023-02-06T17:49:00.254Z,5.03
2023-02-06T17:51:27.117Z,5.00
2023-02-06T17:53:54.404Z,4.94
2023-02-06T17:56:21.574Z,4.89
2023-02-06T17:58:48.262Z,4.83
2023-02-06T18:01:16.862Z,4.80
2023-02-06T18:03:43.786Z,4.82
2023-02-06T18:06:11.541Z,4.76
2023-02-06T18:08:40.018Z,4.73
2023-02-06T18:11:11.595Z,4.70
2023-02-06T18:13:39.745Z,4.65
2023-02-06T18:16:07.274Z,4.60
2023-02-06T18:18:34.866Z,4.61
2023-02-06T18:21:01.820Z,4.57
2023-02-06T18:23:28.537Z,4.52
2023-02-06T18:26:00.361Z,4.48
2023-02-06T18:28:27.365Z,4.45
2023-02-06T18:30:54.683Z,4.42
2023-02-06T18:33:21.643Z,4.36
2023-02-06T18:35:51.016Z,4.32
2023-02-06T18:38:18.179Z,4.27
2023-02-06T18:40:47.972Z,4.24
2023-02-06T18:43:14.800Z,4.21
2023-02-06T18:45:42.593Z,4.16
2023-02-06T18:48:11.738Z,4.09
2023-02-06T18:50:39.514Z,4.08
2023-02-06T18:53:07.778Z,3.98
2023-02-06T18:55:37.192Z,3.95
2023-02-06T18:58:05.181Z,3.93
2023-02-06T19:00:34.444Z,3.88
2023-02-06T19:03:01.746Z,3.85
2023-02-06T19:05:30.618Z,3.82
2023-02-06T19:07:57.587Z,3.79
2023-02-06T19:10:25.847Z,3.76
2023-02-06T19:12:52.586Z,3.75
2023-02-06T19:15:20.062Z,3.76
2023-02-06T19:17:46.799Z,3.77
2023-02-06T19:20:14.365Z,3.73
2023-02-06T19:22:41.385Z,3.71
2023-02-06T19:25:10.883Z,3.69
2023-02-06T19:27:38.742Z,3.67
2023-02-06T19:30:07.843Z,3.63
2023-02-06T19:32:35.432Z,3.59
2023-02-06T19:35:02.512Z,3.58
2023-02-06T19:37:29.099Z,3.59
2023-02-06T19:39:56.330Z,3.58
2023-02-06T19:42:23.167Z,3.55
2023-02-06T19:44:51.896Z,3.56
2023-02-06T19:47:18.906Z,3.53
2023-02-06T19:49:45.550Z,3.56
2023-02-06T19:52:14.490Z,3.56
2023-02-06T19:54:41.524Z,3.54
2023-02-06T19:57:08.883Z,3.49
2023-02-06T19:59:35.812Z,3.45
2023-02-06T20:02:03.339Z,3.37
2023-02-06T20:04:32.306Z,3.35
2023-02-06T20:06:59.753Z,3.32
2023-02-06T20:09:28.380Z,3.27
2023-02-06T20:11:55.933Z,3.21
2023-02-06T20:14:24.168Z,3.17
2023-02-06T20:16:51.555Z,3.17
2023-02-06T20:19:20.226Z,3.10
2023-02-06T20:21:49.072Z,3.07
2023-02-06T20:24:21.855Z,3.01
2023-02-06T20:26:52.977Z,2.90
2023-02-06T20:29:29.161Z,2.85
2023-02-06T20:31:57.521Z,2.80
2023-02-06T20:34:24.483Z,2.81
2023-02-06T20:36:52.666Z,2.77
2023-02-06T20:39:20.241Z,2.73
2023-02-06T20:41:49.550Z,2.67
2023-02-06T20:44:18.134Z,2.63
2023-02-06T20:46:46.414Z,2.62
2023-02-06T20:49:17.768Z,2.61
2023-02-06T20:51:44.628Z,2.55
2023-02-06T20:54:11.625Z,2.51
2023-02-06T20:56:39.252Z,2.48
2023-02-06T20:59:06.489Z,2.42
2023-02-06T21:01:34.397Z,2.39
2023-02-06T21:04:03.833Z,2.39
2023-02-06T21:06:30.822Z,2.36
2023-02-06T21:09:00.209Z,2.31
2023-02-06T21:11:29.558Z,2.26
2023-02-06T21:13:58.468Z,2.27
2023-02-06T21:16:27.160Z,2.24
2023-02-06T21:18:55.083Z,2.23
2023-02-06T21:21:21.791Z,2.12
2023-02-06T21:23:48.544Z,2.15
2023-02-06T21:26:17.860Z,2.13
2023-02-06T21:28:46.249Z,2.14
2023-02-06T21:31:14.903Z,2.10
2023-02-06T21:33:41.571Z,2.06
2023-02-06T21:36:08.583Z,2.04
2023-02-06T21:38:36.478Z,2.04
2023-02-06T21:41:07.419Z,2.00
2023-02-06T21:43:34.991Z,2.01
2023-02-06T21:46:02.194Z,2.00
2023-02-06T21:48:30.490Z,1.98
2023-02-06T21:50:57.954Z,1.98
2023-02-06T21:53:25.235Z,1.97
2023-02-06T21:55:52.061Z,1.94
2023-02-06T21:58:19.668Z,1.94
2023-02-06T22:00:47.409Z,1.84
2023-02-06T22:03:14.977Z,1.86
2023-02-06T22:05:42.179Z,1.86
2023-02-06T22:08:11.782Z,1.94
2023-02-06T22:10:38.415Z,1.95
2023-02-06T22:13:05.970Z,1.92
2023-02-06T22:15:33.364Z,1.92
2023-02-06T22:18:00.250Z,1.98
2023-02-06T22:20:27.532Z,1.97
2023-02-06T22:22:54.972Z,1.94
2023-02-06T22:25:21.773Z,1.93
2023-02-06T22:27:48.642Z,1.94
2023-02-06T22:30:15.722Z,1.88
2023-02-06T22:32:43.165Z,1.86
2023-02-06T22:35:10.343Z,1.84
2023-02-06T22:37:38.438Z,1.74
2023-02-06T22:40:05.479Z,1.70
2023-02-06T22:42:32.286Z,1.75
2023-02-06T22:44:59.665Z,1.74
2023-02-06T22:47:26.407Z,1.68
2023-02-06T22:49:53.524Z,1.60
2023-02-06T22:52:39.429Z,1.57
2023-02-06T22:55:06.642Z,1.54
2023-02-06T22:57:35.329Z,1.52
2023-02-06T23:00:09.257Z,1.46
2023-02-06T23:02:37.447Z,1.42
2023-02-06T23:05:04.604Z,1.42
2023-02-06T23:07:31.781Z,1.40
2023-02-06T23:09:59.174Z,1.41
2023-02-06T23:12:25.934Z,1.44
2023-02-06T23:14:52.574Z,1.45
2023-02-06T23:17:19.540Z,1.48
2023-02-06T23:19:46.392Z,1.45
2023-02-06T23:22:13.547Z,1.41
2023-02-06T23:24:41.532Z,1.39
2023-02-06T23:27:08.531Z,1.37
2023-02-06T23:29:35.261Z,1.38
2023-02-06T23:32:02.223Z,1.36
2023-02-06T23:34:29.201Z,1.37
2023-02-06T23:36:56.184Z,1.32
2023-02-06T23:39:23.099Z,1.28
2023-02-06T23:41:50.140Z,1.28
2023-02-06T23:44:16.853Z,1.26
2023-02-06T23:46:43.713Z,1.23
2023-02-06T23:49:10.997Z,1.27
2023-02-06T23:51:40.315Z,1.26
2023-02-06T23:54:09.102Z,1.33
2023-02-06T23:56:36.528Z,1.25
2023-02-06T23:59:04.416Z,1.26
